Terminal Aerodrome Forecast
Issued by NWS

Home | Current Version | Previous Version | Text Only | Print | Product List | Glossary On
Versions: 1 2 3 4 5 6 7 8 9 10 11 12 13 14
000
FTUS46 KHNX 010528
TAFFAT
TAF
KFAT 010528Z 0106/0206 VRB04KT P6SM SCT060 BKN090
      TEMPO 0106/0110 -SHRA BKN060
     FM012000 VRB04KT P6SM VCSH BKN060
     FM020400 VRB04KT P6SM SCT060=

USA.gov is the U.S. government's official web portal to all federal, state and local government web resources and services.